Hatsu Excel — VSXV3 — position and weather

sailwx.info

Track history (hours):
 
Tides and Currents Weather Stations Pressure Air Temp Water Temp Dewpoint Dewpoint Depression Visibility Wind Speed Wind Dir Waves Ship Positions

Hatsu Excel

Last reported at 2016-Feb-09 06:00 UTC. Time now 2016-Feb-09 07:49 UTC.
Position N 30°30' E 123°54'.

Type: Ship (hazmat cat D). MMSI: 235479000.

Wind from 310 at 1 knots

Waves 0.5 meters (2 feet), 2 second period

Barometer 1021.0 mb
Air temperature 18.0 ° C
Visibility: greater than 10.8 NM

Date/timePositionNaut miles runAvg speedWind from/ knotsBaromVisibWave heightAir tempDewpointWater temp
2016-Feb-09 06:00N 30°30' E 123°54'6819.6 310 / 11021.010.8 0.518.0
2016-Feb-09 02:31N 29°52' E 122°49'1818.2
2016-Feb-09 01:31N 29°40' E 122°33'1413.7
2016-Feb-09 00:32N 29°45' E 122°18'1111.4
2016-Feb-08 23:32N 29°54' E 122°10'7 0.4
2016-Feb-08 08:21N 29°53' E 122°03'1 1.6
2016-Feb-08 07:32N 29°54' E 122°03'7 7.4
2016-Feb-08 06:33N 29°52' E 122°11'1110.7
2016-Feb-08 05:33N 29°45' E 122°21'1211.9
2016-Feb-08 04:31N 29°41' E 122°34'3 0.1
2016-Feb-07 06:32N 29°42' E 122°38'0 0.0
2016-Feb-07 05:32N 29°42' E 122°38'0 0.0
2016-Feb-07 03:05N 29°42' E 122°38'0 0.4
2016-Feb-07 02:28N 29°42' E 122°38'2 2.3
2016-Feb-07 01:33N 29°44' E 122°39'9911.0
2016-Feb-06 16:32N 31°16' E 121°54'10 9.9
2016-Feb-06 15:32N 31°19' E 121°43'8 7.5
2016-Feb-06 14:31N 31°22' E 121°35'0 0.0
2016-Feb-06 13:31N 31°22' E 121°35'0 0.0
2016-Feb-06 12:13N 31°22' E 121°35'0 0.1
2016-Feb-06 11:16N 31°22' E 121°35'0 0.0
2016-Feb-06 10:31N 31°22' E 121°35'0 0.1
2016-Feb-06 09:31N 31°22' E 121°35'0 0.0
2016-Feb-06 08:25N 31°22' E 121°35'0 0.1
2016-Feb-06 07:28N 31°22' E 121°35'0 0.0
2016-Feb-06 06:31N 31°22' E 121°35'0 0.0
2016-Feb-06 05:28N 31°22' E 121°35'0 0.0
2016-Feb-06 04:31N 31°23' E 121°35'0 0.1
2016-Feb-06 03:33N 31°23' E 121°35'1 0.7
2016-Feb-06 02:33N 31°23' E 121°34'1 1.2
2016-Feb-06 01:33N 31°23' E 121°36'9 9.1
2016-Feb-06 00:33N 31°19' E 121°45'1010.5
2016-Feb-05 23:33N 31°15' E 121°57'1211.2
2016-Feb-05 22:28N 31°11' E 122°10'  
2016-Feb-03 06:28N 22°51' E 119°60'1010.5
2016-Feb-03 05:33N 22°43' E 120°06'1312.7
2016-Feb-03 04:33N 22°33' E 120°14'4 4.1
2016-Feb-03 03:28N 22°33' E 120°19'0 0.0
2016-Feb-03 02:16N 22°33' E 120°19'0 0.0
2016-Feb-03 01:22N 22°33' E 120°19'0 0.0
2016-Feb-03 00:28N 22°33' E 120°19'0 0.0
2016-Feb-02 23:28N 22°33' E 120°19'0 0.0
2016-Feb-02 22:28N 22°33' E 120°19'0 0.0
2016-Feb-02 21:28N 22°33' E 120°19'0 0.0
2016-Feb-02 20:22N 22°33' E 120°19'0 0.0
2016-Feb-02 19:28N 22°33' E 120°19'0 0.0
2016-Feb-02 18:28N 22°33' E 120°19'0 0.0
2016-Feb-02 17:28N 22°33' E 120°19'0 0.0
2016-Feb-02 16:28N 22°33' E 120°19'0 0.0
2016-Feb-02 15:28N 22°33' E 120°19'0 0.0
2016-Feb-02 14:22N 22°33' E 120°19'0 0.0
2016-Feb-02 13:33N 22°33' E 120°19'7 6.9
2016-Feb-02 12:33N 22°32' E 120°12'10 9.7
2016-Feb-02 11:34N 22°31' E 120°01'1716.5
2016-Feb-02 10:33N 22°30' E 119°43'30117.3
2016-Feb-01 17:06N 22°34' E 114°17'2 1.5
2016-Feb-01 16:05N 22°34' E 114°16'0 0.1
2016-Feb-01 15:29N 22°34' E 114°16'0 0.0
2016-Feb-01 14:29N 22°34' E 114°16'0 0.0
2016-Feb-01 13:29N 22°34' E 114°16'0 0.0
2016-Feb-01 11:29N 22°34' E 114°16'0 0.0
2016-Feb-01 07:29N 22°34' E 114°16'0 0.0
2016-Feb-01 05:29N 22°34' E 114°16'0 0.0
2016-Feb-01 04:05N 22°34' E 114°16'0 0.1
2016-Feb-01 03:17N 22°34' E 114°16'0 0.4
2016-Feb-01 02:33N 22°34' E 114°16'19 3.1
2016-Jan-31 20:28N 22°20' E 114°29'6 6.4
2016-Jan-31 19:33N 22°14' E 114°29'6 6.4
2016-Jan-31 18:34N 22°09' E 114°24'9 7.5
2016-Jan-31 17:25N 22°07' E 114°15'12 9.6
2016-Jan-31 16:08N 22°16' E 114°06'4 6.2
2016-Jan-31 15:33N 22°20' E 114°07'1 0.5
2016-Jan-31 14:31N 22°20' E 114°08'0 0.0
2016-Jan-31 13:31N 22°20' E 114°08'0 0.1
2016-Jan-31 12:31N 22°20' E 114°08'0 0.0
2016-Jan-31 11:31N 22°20' E 114°08'0 0.1
2016-Jan-31 10:31N 22°20' E 114°08'0 0.0
2016-Jan-31 09:31N 22°20' E 114°08'0 0.0
2016-Jan-31 08:31N 22°20' E 114°08'0 0.0
2016-Jan-31 07:31N 22°20' E 114°08'0 0.0
2016-Jan-31 06:28N 22°20' E 114°08'0 0.0
2016-Jan-31 05:22N 22°20' E 114°08'0 0.0
2016-Jan-31 04:22N 22°20' E 114°08'0 0.1
2016-Jan-31 03:33N 22°20' E 114°07'13 6.3
2016-Jan-31 01:33N 22°09' E 114°14'1211.7
2016-Jan-31 00:33N 22°09' E 114°26'29917.2
2016-Jan-30 07:12N 24°28' E 119°15'  
Track history (hours):
 
Tides and Currents Weather Stations Pressure Air Temp Water Temp Dewpoint Dewpoint Depression Visibility Wind Speed Wind Dir Waves Ship Positions

Hatsu Excel

Last reported at 2016-Feb-09 06:00 UTC. Time now 2016-Feb-09 07:49 UTC.
Position N 30°30' E 123°54'.

Type: Ship (hazmat cat D). MMSI: 235479000.

Wind from 310 at 1 knots

Waves 0.5 meters (2 feet), 2 second period

Barometer 1021.0 mb
Air temperature 18.0 ° C
Visibility: greater than 10.8 NM

Date/timePositionNaut miles runAvg speedWind from/ knotsBaromVisibWave heightAir tempDewpointWater temp
2016-Feb-09 06:00N 30°30' E 123°54'6819.6 310 / 11021.010.8 0.518.0
2016-Feb-09 02:31N 29°52' E 122°49'1818.2
2016-Feb-09 01:31N 29°40' E 122°33'1413.7
2016-Feb-09 00:32N 29°45' E 122°18'1111.4
2016-Feb-08 23:32N 29°54' E 122°10'7 0.4
2016-Feb-08 08:21N 29°53' E 122°03'1 1.6
2016-Feb-08 07:32N 29°54' E 122°03'7 7.4
2016-Feb-08 06:33N 29°52' E 122°11'1110.7
2016-Feb-08 05:33N 29°45' E 122°21'1211.9
2016-Feb-08 04:31N 29°41' E 122°34'3 0.1
2016-Feb-07 06:32N 29°42' E 122°38'0 0.0
2016-Feb-07 05:32N 29°42' E 122°38'0 0.0
2016-Feb-07 03:05N 29°42' E 122°38'0 0.4
2016-Feb-07 02:28N 29°42' E 122°38'2 2.3
2016-Feb-07 01:33N 29°44' E 122°39'9911.0
2016-Feb-06 16:32N 31°16' E 121°54'10 9.9
2016-Feb-06 15:32N 31°19' E 121°43'8 7.5
2016-Feb-06 14:31N 31°22' E 121°35'0 0.0
2016-Feb-06 13:31N 31°22' E 121°35'0 0.0
2016-Feb-06 12:13N 31°22' E 121°35'0 0.1
2016-Feb-06 11:16N 31°22' E 121°35'0 0.0
2016-Feb-06 10:31N 31°22' E 121°35'0 0.1
2016-Feb-06 09:31N 31°22' E 121°35'0 0.0
2016-Feb-06 08:25N 31°22' E 121°35'0 0.1
2016-Feb-06 07:28N 31°22' E 121°35'0 0.0
2016-Feb-06 06:31N 31°22' E 121°35'0 0.0
2016-Feb-06 05:28N 31°22' E 121°35'0 0.0
2016-Feb-06 04:31N 31°23' E 121°35'0 0.1
2016-Feb-06 03:33N 31°23' E 121°35'1 0.7
2016-Feb-06 02:33N 31°23' E 121°34'1 1.2
2016-Feb-06 01:33N 31°23' E 121°36'9 9.1
2016-Feb-06 00:33N 31°19' E 121°45'1010.5
2016-Feb-05 23:33N 31°15' E 121°57'1211.2
2016-Feb-05 22:28N 31°11' E 122°10'  
2016-Feb-03 06:28N 22°51' E 119°60'1010.5
2016-Feb-03 05:33N 22°43' E 120°06'1312.7
2016-Feb-03 04:33N 22°33' E 120°14'4 4.1
2016-Feb-03 03:28N 22°33' E 120°19'0 0.0
2016-Feb-03 02:16N 22°33' E 120°19'0 0.0
2016-Feb-03 01:22N 22°33' E 120°19'0 0.0
2016-Feb-03 00:28N 22°33' E 120°19'0 0.0
2016-Feb-02 23:28N 22°33' E 120°19'0 0.0
2016-Feb-02 22:28N 22°33' E 120°19'0 0.0
2016-Feb-02 21:28N 22°33' E 120°19'0 0.0
2016-Feb-02 20:22N 22°33' E 120°19'0 0.0
2016-Feb-02 19:28N 22°33' E 120°19'0 0.0
2016-Feb-02 18:28N 22°33' E 120°19'0 0.0
2016-Feb-02 17:28N 22°33' E 120°19'0 0.0
2016-Feb-02 16:28N 22°33' E 120°19'0 0.0
2016-Feb-02 15:28N 22°33' E 120°19'0 0.0
2016-Feb-02 14:22N 22°33' E 120°19'0 0.0
2016-Feb-02 13:33N 22°33' E 120°19'7 6.9
2016-Feb-02 12:33N 22°32' E 120°12'10 9.7
2016-Feb-02 11:34N 22°31' E 120°01'1716.5
2016-Feb-02 10:33N 22°30' E 119°43'30117.3
2016-Feb-01 17:06N 22°34' E 114°17'2 1.5
2016-Feb-01 16:05N 22°34' E 114°16'0 0.1
2016-Feb-01 15:29N 22°34' E 114°16'0 0.0
2016-Feb-01 14:29N 22°34' E 114°16'0 0.0
2016-Feb-01 13:29N 22°34' E 114°16'0 0.0
2016-Feb-01 11:29N 22°34' E 114°16'0 0.0
2016-Feb-01 07:29N 22°34' E 114°16'0 0.0
2016-Feb-01 05:29N 22°34' E 114°16'0 0.0
2016-Feb-01 04:05N 22°34' E 114°16'0 0.1
2016-Feb-01 03:17N 22°34' E 114°16'0 0.4
2016-Feb-01 02:33N 22°34' E 114°16'19 3.1
2016-Jan-31 20:28N 22°20' E 114°29'6 6.4
2016-Jan-31 19:33N 22°14' E 114°29'6 6.4
2016-Jan-31 18:34N 22°09' E 114°24'9 7.5
2016-Jan-31 17:25N 22°07' E 114°15'12 9.6
2016-Jan-31 16:08N 22°16' E 114°06'4 6.2
2016-Jan-31 15:33N 22°20' E 114°07'1 0.5
2016-Jan-31 14:31N 22°20' E 114°08'0 0.0
2016-Jan-31 13:31N 22°20' E 114°08'0 0.1
2016-Jan-31 12:31N 22°20' E 114°08'0 0.0
2016-Jan-31 11:31N 22°20' E 114°08'0 0.1
2016-Jan-31 10:31N 22°20' E 114°08'0 0.0
2016-Jan-31 09:31N 22°20' E 114°08'0 0.0
2016-Jan-31 08:31N 22°20' E 114°08'0 0.0
2016-Jan-31 07:31N 22°20' E 114°08'0 0.0
2016-Jan-31 06:28N 22°20' E 114°08'0 0.0
2016-Jan-31 05:22N 22°20' E 114°08'0 0.0
2016-Jan-31 04:22N 22°20' E 114°08'0 0.1
2016-Jan-31 03:33N 22°20' E 114°07'13 6.3
2016-Jan-31 01:33N 22°09' E 114°14'1211.7
2016-Jan-31 00:33N 22°09' E 114°26'29917.2
2016-Jan-30 07:12N 24°28' E 119°15'  

Dump ship's entire track history